Time;durP1;ratioP1;P1;durP2;ratioP2;P2;SDS_P1;SDS_P2;PMS_P1;PMS_P2;Temp;Humidity;BMP_temperature;BMP_pressure;BME280_temperature;BME280_humidity;BME280_pressure;Samples;Min_cycle;Max_cycle;Signal;HPM_P1;HPM_P2
2021/06/29 00:02:07;;;;;;;1999.90;999.90;;;;;;;19.76;84.71;95841.84;5111044;28;20285;-63
2021/06/29 00:04:34;;;;;;;1999.90;999.90;;;;;;;19.71;85.14;95838.69;5110843;28;20241;-63
2021/06/29 00:07:03;;;;;;;1999.90;999.90;;;;;;;19.68;85.35;95850.69;5111085;28;20275;-63
2021/06/29 00:09:30;;;;;;;1999.90;999.90;;;;;;;19.60;85.13;95838.44;5110847;28;20212;-63
2021/06/29 00:11:58;;;;;;;1999.90;999.90;;;;;;;19.52;85.60;95841.28;5110646;28;20268;-63
2021/06/29 00:14:25;;;;;;;1999.90;999.90;;;;;;;19.46;86.33;95838.13;5111082;28;20272;-63
2021/06/29 00:16:52;;;;;;;1999.90;999.90;;;;;;;19.41;87.01;95835.72;5110986;28;20207;-63
2021/06/29 00:19:20;;;;;;;1999.90;999.90;;;;;;;19.36;86.52;95828.06;5110523;28;20248;-63
2021/06/29 00:21:47;;;;;;;1999.90;999.90;;;;;;;19.24;87.74;95828.13;5110232;28;20221;-64
2021/06/29 00:24:16;;;;;;;1999.90;999.90;;;;;;;19.20;88.18;95822.03;5113306;27;20191;-62
2021/06/29 00:26:44;;;;;;;1999.90;999.90;;;;;;;19.11;88.74;95832.72;5110523;28;20254;-63
2021/06/29 00:29:11;;;;;;;1999.90;999.90;;;;;;;19.22;88.13;95835.63;5110599;28;20238;-63
2021/06/29 00:31:38;;;;;;;1999.90;999.90;;;;;;;19.12;89.11;95834.28;5110286;28;20667;-63
2021/06/29 00:34:06;;;;;;;1999.90;999.90;;;;;;;19.15;88.77;95830.19;5110612;28;20202;-62
2021/06/29 00:36:33;;;;;;;1999.90;999.90;;;;;;;19.10;88.84;95836.47;5110198;28;20191;-62
2021/06/29 00:39:01;;;;;;;1999.90;999.90;;;;;;;19.12;89.09;95833.50;5109616;28;20226;-61
2021/06/29 00:41:29;;;;;;;1999.90;999.90;;;;;;;19.12;89.48;95829.00;5110120;28;20228;-62
2021/06/29 00:43:57;;;;;;;1999.90;999.90;;;;;;;19.16;89.47;95829.09;5110180;28;20195;-61
2021/06/29 00:46:24;;;;;;;1999.90;999.90;;;;;;;19.08;89.88;95822.84;5109839;28;20284;-62
2021/06/29 00:48:52;;;;;;;1999.90;999.90;;;;;;;19.03;90.38;95819.72;5110384;28;20254;-62
2021/06/29 00:51:21;;;;;;;1999.90;999.90;;;;;;;19.01;90.40;95820.06;5110226;28;20199;-63
2021/06/29 00:53:49;;;;;;;1999.90;999.90;;;;;;;18.91;90.44;95823.97;5109907;28;20252;-63
2021/06/29 00:56:19;;;;;;;1999.90;999.90;;;;;;;18.92;90.67;95822.09;5109788;28;20286;-62
2021/06/29 00:58:49;;;;;;;1999.90;999.90;;;;;;;18.88;90.44;95824.63;5110223;28;20187;-63
2021/06/29 01:01:16;;;;;;;1999.90;999.90;;;;;;;18.86;90.93;95821.56;5109702;28;20326;-63
2021/06/29 01:03:44;;;;;;;1999.90;999.90;;;;;;;18.76;90.96;95823.94;5109694;28;20199;-63
2021/06/29 01:06:14;;;;;;;1999.90;999.90;;;;;;;18.76;91.72;95821.28;5109734;28;20223;-63
2021/06/29 01:08:42;;;;;;;1999.90;999.90;;;;;;;18.69;93.01;95829.00;5109620;28;20683;-64
2021/06/29 01:11:11;;;;;;;1999.90;999.90;;;;;;;18.68;92.80;95833.50;5110042;28;20199;-63
2021/06/29 01:13:40;;;;;;;1999.90;999.90;;;;;;;18.56;94.01;95836.19;5109649;28;20251;-63
2021/06/29 01:16:08;;;;;;;1999.90;999.90;;;;;;;18.49;95.50;95830.69;5109716;28;20257;-63
2021/06/29 01:18:37;;;;;;;1999.90;999.90;;;;;;;18.40;96.09;95830.06;5109486;28;20293;-63
2021/06/29 01:21:07;;;;;;;1999.90;999.90;;;;;;;18.34;97.27;95828.78;5109645;28;20207;-62
2021/06/29 01:23:36;;;;;;;1999.90;999.90;;;;;;;18.27;97.89;95832.00;5109617;28;20187;-62
2021/06/29 01:26:07;;;;;;;1999.90;999.90;;;;;;;18.19;98.66;95824.22;5109609;28;20222;-63
2021/06/29 01:28:39;;;;;;;1999.90;999.90;;;;;;;18.17;98.97;95824.56;5109416;28;20179;-62
2021/06/29 01:31:06;;;;;;;1999.90;999.90;;;;;;;18.21;98.60;95830.69;5109273;28;20325;-62
2021/06/29 01:33:34;;;;;;;1999.90;999.90;;;;;;;18.01;99.52;95824.50;5109454;28;20595;-62
2021/06/29 01:36:02;;;;;;;1999.90;999.90;;;;;;;18.05;99.58;95829.84;5109431;28;20195;-62
2021/06/29 01:38:31;;;;;;;1999.90;999.90;;;;;;;18.01;100.00;95827.13;5109169;28;20199;-62
2021/06/29 01:40:58;;;;;;;1999.90;999.90;;;;;;;17.93;100.00;95829.88;5109632;28;20258;-62
2021/06/29 01:43:28;;;;;;;1999.90;999.90;;;;;;;17.94;100.00;95826.91;5109159;28;20199;-63
2021/06/29 01:45:56;;;;;;;1999.90;999.90;;;;;;;18.01;100.00;95824.50;5107202;28;20234;-62
2021/06/29 01:48:24;;;;;;;1999.90;999.90;;;;;;;17.99;100.00;95826.69;5109346;28;20207;-63
2021/06/29 01:50:53;;;;;;;1999.90;999.90;;;;;;;17.97;100.00;95831.50;5112142;28;20191;-64
2021/06/29 01:53:22;;;;;;;1999.90;999.90;;;;;;;17.99;100.00;95837.19;5113474;28;20223;-63
2021/06/29 01:55:51;;;;;;;1999.90;999.90;;;;;;;18.08;99.56;95823.94;5113498;28;20278;-63
2021/06/29 01:58:25;;;;;;;1999.90;999.90;;;;;;;18.03;99.37;95824.16;5113491;28;20187;-63
2021/06/29 02:00:53;;;;;;;1999.90;999.90;;;;;;;18.00;100.00;95828.22;5110634;28;20184;-63
2021/06/29 02:03:20;;;;;;;1999.90;999.90;;;;;;;18.05;99.54;95825.34;5110233;28;20221;-63
2021/06/29 02:05:47;;;;;;;1999.90;999.90;;;;;;;17.90;98.99;95818.16;5110337;28;20231;-63
2021/06/29 02:08:15;;;;;;;1999.90;999.90;;;;;;;17.79;99.58;95814.44;5111588;28;20625;-63
2021/06/29 02:10:42;;;;;;;1999.90;999.90;;;;;;;17.74;99.08;95821.78;5112532;28;20286;-64
2021/06/29 02:13:11;;;;;;;1999.90;999.90;;;;;;;17.58;100.00;95821.66;5112601;28;20282;-63
2021/06/29 02:15:38;;;;;;;1999.90;999.90;;;;;;;17.59;100.00;95825.84;5112971;28;20195;-63
2021/06/29 02:18:05;;;;;;;1999.90;999.90;;;;;;;17.59;100.00;95825.84;5113072;28;20256;-63
2021/06/29 02:20:33;;;;;;;1999.90;999.90;;;;;;;17.57;100.00;95826.16;5112672;28;20199;-63
2021/06/29 02:23:00;;;;;;;1999.90;999.90;;;;;;;17.61;100.00;95831.53;5115305;27;20994;-63
2021/06/29 02:25:28;;;;;;;1999.90;999.90;;;;;;;17.56;100.00;95827.25;5112540;28;20706;-63
2021/06/29 02:27:55;;;;;;;1999.90;999.90;;;;;;;17.57;100.00;95822.75;5112911;28;20226;-62
2021/06/29 02:30:24;;;;;;;1999.90;999.90;;;;;;;17.59;100.00;95831.09;5112907;28;20267;-63
2021/06/29 02:32:52;;;;;;;1999.90;999.90;;;;;;;17.49;100.00;95827.00;5112626;28;20663;-63
2021/06/29 02:35:19;;;;;;;1999.90;999.90;;;;;;;17.42;100.00;95828.66;5112178;28;20293;-62
2021/06/29 02:37:47;;;;;;;1999.90;999.90;;;;;;;17.44;100.00;95829.09;5112547;28;20191;-63
2021/06/29 02:40:15;;;;;;;1999.90;999.90;;;;;;;17.45;100.00;95828.00;5112498;28;20765;-63
2021/06/29 02:42:42;;;;;;;1999.90;999.90;;;;;;;17.50;100.00;95828.56;5106207;28;20211;-63
2021/06/29 02:45:12;;;;;;;1999.90;999.90;;;;;;;17.46;100.00;95838.19;5091824;28;20319;-62
2021/06/29 02:47:40;;;;;;;1999.90;999.90;;;;;;;17.41;100.00;95835.00;5091608;28;20655;-63
2021/06/29 02:50:10;;;;;;;1999.90;999.90;;;;;;;17.37;100.00;95834.13;5091949;28;20199;-63
2021/06/29 02:52:38;;;;;;;1999.90;999.90;;;;;;;17.40;100.00;95836.09;5091825;28;20262;-63
2021/06/29 02:55:08;;;;;;;1999.90;999.90;;;;;;;17.51;100.00;95831.94;5091586;28;20291;-60
2021/06/29 02:57:36;;;;;;;1999.90;999.90;;;;;;;17.50;100.00;95825.16;5091550;28;20187;-61
2021/06/29 03:00:05;;;;;;;1999.90;999.90;;;;;;;17.42;100.00;95826.81;5091861;28;20196;-61
2021/06/29 03:02:33;;;;;;;1999.90;999.90;;;;;;;17.40;100.00;95828.22;5090116;28;20205;-61
2021/06/29 03:05:02;;;;;;;1999.90;999.90;;;;;;;17.31;100.00;95838.06;5091474;28;20196;-61
2021/06/29 03:07:29;;;;;;;1999.90;999.90;;;;;;;17.28;100.00;95833.47;5091593;28;20224;-64
2021/06/29 03:09:56;;;;;;;1999.90;999.90;;;;;;;17.34;100.00;95838.19;5090210;28;20432;-62
2021/06/29 03:12:23;;;;;;;1999.90;999.90;;;;;;;17.45;100.00;95843.78;5091475;28;20720;-63
2021/06/29 03:14:55;;;;;;;1999.90;999.90;;;;;;;17.49;100.00;95834.91;5091443;28;20235;-63
2021/06/29 03:17:22;;;;;;;1999.90;999.90;;;;;;;17.64;100.00;95834.28;5091543;28;20184;-62
2021/06/29 03:19:50;;;;;;;1999.90;999.90;;;;;;;17.66;100.00;95830.56;5091378;28;20199;-63
2021/06/29 03:22:19;;;;;;;1999.90;999.90;;;;;;;17.71;100.00;95825.84;5109042;28;20217;-61
2021/06/29 03:24:47;;;;;;;1999.90;999.90;;;;;;;17.79;100.00;95830.22;5111454;28;20191;-63
2021/06/29 03:27:14;;;;;;;1999.90;999.90;;;;;;;17.83;100.00;95830.34;5111277;27;20219;-62
2021/06/29 03:29:42;;;;;;;1999.90;999.90;;;;;;;17.93;99.32;95830.63;5111448;28;20203;-63
2021/06/29 03:32:10;;;;;;;1999.90;999.90;;;;;;;17.94;99.68;95832.16;5109805;28;20283;-62
2021/06/29 03:34:37;;;;;;;1999.90;999.90;;;;;;;18.08;99.11;95827.31;5111796;27;20667;-61
2021/06/29 03:37:05;;;;;;;1999.90;999.90;;;;;;;18.10;99.01;95837.50;5111410;28;20298;-62
2021/06/29 03:39:34;;;;;;;1999.90;999.90;;;;;;;17.97;100.00;95834.16;5111394;28;20251;-62
2021/06/29 03:42:02;;;;;;;1999.90;999.90;;;;;;;17.93;100.00;95846.41;5110793;28;20203;-61
2021/06/29 03:44:29;;;;;;;1999.90;999.90;;;;;;;17.77;100.00;95840.31;5111368;28;20237;-60
2021/06/29 03:46:56;;;;;;;1999.90;999.90;;;;;;;17.78;100.00;95844.47;5110785;28;20276;-62
2021/06/29 03:49:24;;;;;;;1999.90;999.90;;;;;;;17.77;100.00;95847.41;5108715;28;20287;-62
2021/06/29 03:51:53;;;;;;;1999.90;999.90;;;;;;;17.94;100.00;95853.19;5108945;28;20290;-62
2021/06/29 03:54:20;;;;;;;1999.90;999.90;;;;;;;17.99;100.00;95852.97;5109261;28;20195;-61
2021/06/29 03:56:49;;;;;;;1999.90;999.90;;;;;;;18.06;100.00;95857.69;5109228;28;20287;-62
2021/06/29 03:59:17;;;;;;;1999.90;999.90;;;;;;;18.19;100.00;95856.56;5109127;28;20195;-62
2021/06/29 04:01:46;;;;;;;1999.90;999.90;;;;;;;18.26;100.00;95858.63;5108913;28;20190;-61
2021/06/29 04:04:13;;;;;;;1999.90;999.90;;;;;;;18.34;100.00;95860.34;5108647;28;20205;-62
2021/06/29 04:06:40;;;;;;;1999.90;999.90;;;;;;;18.38;100.00;95856.72;5108684;28;20203;-62
2021/06/29 04:09:09;;;;;;;1999.90;999.90;;;;;;;18.43;100.00;95863.63;5110719;28;20205;-62
2021/06/29 04:11:36;;;;;;;1999.90;999.90;;;;;;;18.39;100.00;95860.88;5110641;28;20199;-62
2021/06/29 04:14:05;;;;;;;1999.90;999.90;;;;;;;18.54;100.00;95864.72;5110523;28;20276;-61
2021/06/29 04:16:33;;;;;;;1999.90;999.90;;;;;;;18.59;100.00;95863.69;5110619;28;20241;-67
2021/06/29 04:19:00;;;;;;;1999.90;999.90;;;;;;;18.79;100.00;95858.25;5110633;28;20195;-60
2021/06/29 04:21:27;;;;;;;1999.90;999.90;;;;;;;18.97;100.00;95858.72;5106072;28;20206;-72
2021/06/29 04:23:54;;;;;;;1999.90;999.90;;;;;;;19.19;98.31;95860.00;5110699;28;20272;-78
2021/06/29 04:26:22;;;;;;;1999.90;999.90;;;;;;;19.40;97.45;95854.50;5110549;28;20195;-77
2021/06/29 04:28:49;;;;;;;1999.90;999.90;;;;;;;19.68;95.55;95863.88;5113131;27;20314;-79
2021/06/29 04:31:18;;;;;;;1999.90;999.90;;;;;;;20.01;95.00;95857.44;5110350;28;20264;-78
2021/06/29 04:33:46;;;;;;;1999.90;999.90;;;;;;;20.43;92.90;95855.72;5110751;28;20217;-76
2021/06/29 04:36:13;;;;;;;1999.90;999.90;;;;;;;20.84;90.87;95854.25;5110598;28;20804;-78
2021/06/29 04:38:41;;;;;;;1999.90;999.90;;;;;;;21.25;88.97;95857.25;5110582;28;20568;-78
2021/06/29 04:41:08;;;;;;;1999.90;999.90;;;;;;;21.43;87.38;95855.66;5110568;28;20274;-78
2021/06/29 04:43:37;;;;;;;1999.90;999.90;;;;;;;21.69;86.77;95857.56;5110106;28;20202;-79
2021/06/29 04:46:05;;;;;;;1999.90;999.90;;;;;;;21.94;85.28;95858.72;5110041;28;20206;-78
2021/06/29 04:48:37;;;;;;;1999.90;999.90;;;;;;;21.98;85.41;95862.19;5110088;28;20260;-76
2021/06/29 04:51:05;;;;;;;1999.90;999.90;;;;;;;22.25;84.10;95874.31;5109912;28;20292;-77
2021/06/29 04:53:33;;;;;;;1999.90;999.90;;;;;;;22.42;83.20;95866.91;5109949;28;20218;-78
2021/06/29 04:56:00;;;;;;;1999.90;999.90;;;;;;;22.30;84.66;95866.03;5110110;28;20554;-78
2021/06/29 04:58:27;;;;;;;1999.90;999.90;;;;;;;22.61;82.66;95869.44;5110250;28;20191;-78
2021/06/29 05:00:55;;;;;;;1999.90;999.90;;;;;;;22.78;81.54;95873.44;5110005;28;20202;-78
2021/06/29 05:03:22;;;;;;;1999.90;999.90;;;;;;;22.94;80.66;95874.00;5109930;28;20203;-78
2021/06/29 05:05:51;;;;;;;1999.90;999.90;;;;;;;23.04;80.03;95865.38;5110104;28;20251;-79
2021/06/29 05:08:18;;;;;;;1999.90;999.90;;;;;;;23.10;80.02;95864.72;5109794;28;20223;-79
2021/06/29 05:10:45;;;;;;;1999.90;999.90;;;;;;;23.18;81.45;95861.00;5109931;28;20658;-77
2021/06/29 05:13:13;;;;;;;1999.90;999.90;;;;;;;23.30;82.05;95861.84;5113662;28;20194;-79
2021/06/29 05:15:40;;;;;;;1999.90;999.90;;;;;;;23.42;80.82;95858.91;5113890;28;20203;-76
2021/06/29 05:18:07;;;;;;;1999.90;999.90;;;;;;;23.53;81.49;95859.78;5116133;28;20195;-78
2021/06/29 05:20:35;;;;;;;1999.90;999.90;;;;;;;23.80;79.27;95863.03;5109637;28;20214;-80
2021/06/29 05:23:03;;;;;;;1999.90;999.90;;;;;;;23.79;78.39;95862.28;5110096;28;20192;-79
2021/06/29 05:25:31;;;;;;;1999.90;999.90;;;;;;;23.65;80.36;95867.47;5109382;28;20207;-81
2021/06/29 05:27:59;;;;;;;1999.90;999.90;;;;;;;23.53;81.38;95865.09;5109724;28;20728;-80
2021/06/29 05:30:26;;;;;;;1999.90;999.90;;;;;;;23.90;81.12;95865.78;5109953;28;20195;-79
2021/06/29 05:32:54;;;;;;;1999.90;999.90;;;;;;;24.14;81.35;95866.28;5110121;28;20270;-80
2021/06/29 05:35:21;;;;;;;1999.90;999.90;;;;;;;24.34;79.46;95870.97;5110144;28;20209;-77
2021/06/29 05:37:48;;;;;;;1999.90;999.90;;;;;;;24.38;79.50;95871.00;5113581;28;20198;-78
2021/06/29 05:40:17;;;;;;;1999.90;999.90;;;;;;;24.64;78.45;95870.72;5110442;28;20263;-78
2021/06/29 05:42:45;;;;;;;1999.90;999.90;;;;;;;24.63;77.22;95869.19;5110419;28;20195;-79
2021/06/29 05:45:13;;;;;;;1999.90;999.90;;;;;;;24.62;79.26;95870.34;5110458;28;20738;-78
2021/06/29 05:47:41;;;;;;;1999.90;999.90;;;;;;;24.70;78.83;95865.81;5110550;28;20658;-80
2021/06/29 05:50:11;;;;;;;1999.90;999.90;;;;;;;24.68;80.77;95868.84;5114459;28;20206;-80
2021/06/29 05:52:38;;;;;;;1999.90;999.90;;;;;;;24.55;81.07;95870.31;5109538;28;20198;-79
2021/06/29 05:55:07;;;;;;;1999.90;999.90;;;;;;;24.87;79.34;95870.44;5110403;28;20276;-83
2021/06/29 05:57:36;;;;;;;1999.90;999.90;;;;;;;25.04;79.44;95871.63;5109863;28;20625;-83
2021/06/29 06:00:05;;;;;;;1999.90;999.90;;;;;;;24.91;79.64;95870.47;5110057;28;20202;-81
2021/06/29 06:02:32;;;;;;;1999.90;999.90;;;;;;;25.12;79.82;95878.47;5109330;28;20242;-82
2021/06/29 06:04:59;;;;;;;1999.90;999.90;;;;;;;25.29;78.95;95870.53;5109653;28;20195;-81
2021/06/29 06:07:27;;;;;;;1999.90;999.90;;;;;;;25.47;77.52;95878.53;5109417;28;20710;-80
2021/06/29 06:09:54;;;;;;;1999.90;999.90;;;;;;;25.61;75.98;95862.59;5109097;28;20247;-79
2021/06/29 06:12:23;;;;;;;1999.90;999.90;;;;;;;25.74;76.61;95872.88;5109273;28;20267;-78
2021/06/29 06:14:51;;;;;;;1999.90;999.90;;;;;;;25.92;76.64;95860.28;5109354;28;20223;-79
2021/06/29 06:17:19;;;;;;;1999.90;999.90;;;;;;;26.14;73.99;95864.44;5109142;28;20231;-79
2021/06/29 06:19:46;;;;;;;1999.90;999.90;;;;;;;25.92;74.96;95858.38;5109258;28;20237;-76
2021/06/29 06:22:13;;;;;;;1999.90;999.90;;;;;;;25.83;75.59;95859.91;5109502;28;20567;-77
2021/06/29 06:24:42;;;;;;;1999.90;999.90;;;;;;;25.67;77.44;95853.09;5109637;28;20282;-80
2021/06/29 06:27:13;;;;;;;1999.90;999.90;;;;;;;25.90;76.64;95857.25;5109915;28;20260;-79
2021/06/29 06:29:41;;;;;;;1999.90;999.90;;;;;;;26.06;75.95;95852.25;5111855;28;20188;-80
2021/06/29 06:32:10;;;;;;;1999.90;999.90;;;;;;;26.22;75.02;95851.88;5109469;28;20685;-81
2021/06/29 06:34:37;;;;;;;1999.90;999.90;;;;;;;26.20;75.85;95854.91;5109510;28;20659;-80
2021/06/29 06:37:05;;;;;;;1999.90;999.90;;;;;;;26.33;75.16;95850.72;5112552;28;20285;-81
2021/06/29 06:39:32;;;;;;;1999.90;999.90;;;;;;;26.39;76.75;95856.41;5112908;28;20646;-75
2021/06/29 06:42:00;;;;;;;1999.90;999.90;;;;;;;26.63;75.76;95860.13;5119958;28;20199;-82
2021/06/29 06:44:27;;;;;;;1999.90;999.90;;;;;;;26.73;76.41;95861.97;5112843;28;20276;-78
2021/06/29 06:46:55;;;;;;;1999.90;999.90;;;;;;;26.93;75.25;95858.47;5112758;28;20226;-77
2021/06/29 06:49:23;;;;;;;1999.90;999.90;;;;;;;26.81;73.53;95858.88;5112698;28;20230;-79
2021/06/29 06:51:51;;;;;;;1999.90;999.90;;;;;;;26.61;74.10;95855.16;5112720;28;20234;-76
2021/06/29 06:54:18;;;;;;;1999.90;999.90;;;;;;;26.72;74.14;95861.22;5112495;28;20248;-76
2021/06/29 06:56:45;;;;;;;1999.90;999.90;;;;;;;26.94;74.26;95854.66;5107840;28;20658;-76
2021/06/29 06:59:13;;;;;;;1999.90;999.90;;;;;;;27.02;72.65;95852.69;5103224;28;20976;-77
2021/06/29 07:01:41;;;;;;;1999.90;999.90;;;;;;;27.24;71.50;95854.09;5112381;28;20260;-78
2021/06/29 07:04:08;;;;;;;1999.90;999.90;;;;;;;27.23;70.42;95854.47;5114113;28;20621;-78
2021/06/29 07:06:37;;;;;;;1999.90;999.90;;;;;;;27.01;73.38;95853.84;5112258;28;20206;-78
2021/06/29 07:09:04;;;;;;;1999.90;999.90;;;;;;;27.18;74.21;95841.53;5112604;28;20233;-78
2021/06/29 07:11:32;;;;;;;1999.90;999.90;;;;;;;27.36;72.53;95850.94;5114281;28;20666;-77
2021/06/29 07:13:59;;;;;;;1999.90;999.90;;;;;;;27.42;72.87;95843.28;5112588;28;20278;-76
2021/06/29 07:16:26;;;;;;;1999.90;999.90;;;;;;;27.84;71.93;95842.19;5112315;28;20199;-76
2021/06/29 07:18:54;;;;;;;1999.90;999.90;;;;;;;27.98;69.81;95847.41;5111784;28;20191;-75
2021/06/29 07:21:26;;;;;;;1999.90;999.90;;;;;;;28.09;71.41;95844.63;5111934;28;20264;-75
2021/06/29 07:23:55;;;;;;;1999.90;999.90;;;;;;;27.81;69.85;95835.72;5112170;28;20589;-75
2021/06/29 07:26:23;;;;;;;1999.90;999.90;;;;;;;27.91;70.93;95838.69;5111646;28;20199;-75
2021/06/29 07:28:51;;;;;;;1999.90;999.90;;;;;;;28.09;70.66;95840.03;5112212;28;20227;-76
2021/06/29 07:31:18;;;;;;;1999.90;999.90;;;;;;;28.10;69.69;95832.75;5111620;28;20230;-78
2021/06/29 07:33:46;;;;;;;1999.90;999.90;;;;;;;28.31;71.42;95827.22;5111946;28;20210;-78
2021/06/29 07:36:15;;;;;;;1999.90;999.90;;;;;;;28.31;69.97;95829.88;5111776;28;20225;-79
2021/06/29 07:38:43;;;;;;;1999.90;999.90;;;;;;;28.56;67.57;95830.34;5112500;28;20195;-79
2021/06/29 07:41:13;;;;;;;1999.90;999.90;;;;;;;28.52;68.22;95826.97;5112389;28;20671;-77
2021/06/29 07:43:41;;;;;;;1999.90;999.90;;;;;;;28.39;67.48;95817.97;5112319;28;20179;-72
2021/06/29 07:46:08;;;;;;;1999.90;999.90;;;;;;;28.48;68.19;95818.22;5115636;28;20272;-72
2021/06/29 07:48:35;;;;;;;1999.90;999.90;;;;;;;28.38;69.16;95821.03;5110937;28;20242;-74
2021/06/29 07:51:03;;;;;;;1999.90;999.90;;;;;;;28.75;67.90;95823.63;5111219;28;20199;-72
2021/06/29 07:53:34;;;;;;;1999.90;999.90;;;;;;;28.86;69.74;95818.91;5111176;28;20314;-74
2021/06/29 07:56:01;;;;;;;1999.90;999.90;;;;;;;28.91;65.71;95821.13;5111142;28;20207;-73
2021/06/29 07:58:30;;;;;;;1999.90;999.90;;;;;;;28.94;67.66;95816.91;5110918;28;20234;-74
2021/06/29 08:00:58;;;;;;;1999.90;999.90;;;;;;;28.90;66.50;95813.50;5110930;28;20202;-74
2021/06/29 08:03:25;;;;;;;1999.90;999.90;;;;;;;29.13;64.76;95813.56;5110933;28;20203;-74
2021/06/29 08:05:52;;;;;;;1999.90;999.90;;;;;;;29.35;65.74;95811.31;5110892;28;20206;-74
2021/06/29 08:08:20;;;;;;;1999.90;999.90;;;;;;;29.56;66.06;95812.91;5110884;28;20305;-74
2021/06/29 08:10:47;;;;;;;1999.90;999.90;;;;;;;29.84;64.69;95807.78;5110772;28;20256;-74
2021/06/29 08:13:15;;;;;;;1999.90;999.90;;;;;;;29.93;64.17;95802.69;5110764;28;20207;-75
2021/06/29 08:15:43;;;;;;;1999.90;999.90;;;;;;;29.93;65.48;95807.31;5110729;28;20293;-74
2021/06/29 08:18:12;;;;;;;1999.90;999.90;;;;;;;30.04;62.00;95796.38;5110723;28;20274;-74
2021/06/29 08:20:39;;;;;;;1999.90;999.90;;;;;;;30.00;61.84;95798.34;5110581;28;20214;-74
2021/06/29 08:23:07;;;;;;;1999.90;999.90;;;;;;;30.17;60.83;95799.97;5110524;28;20752;-74
2021/06/29 08:25:35;;;;;;;1999.90;999.90;;;;;;;30.20;63.06;95799.13;5112976;27;20199;-73
2021/06/29 08:28:02;;;;;;;1999.90;999.90;;;;;;;29.98;60.62;95795.34;5110675;28;20195;-74
2021/06/29 08:30:29;;;;;;;1999.90;999.90;;;;;;;29.99;64.50;95788.81;5110457;28;20238;-74
2021/06/29 08:32:58;;;;;;;1999.90;999.90;;;;;;;30.26;60.23;95786.75;5110829;28;20183;-75
2021/06/29 08:35:25;;;;;;;1999.90;999.90;;;;;;;30.37;60.51;95789.97;5110480;28;20198;-75
2021/06/29 08:37:53;;;;;;;1999.90;999.90;;;;;;;30.22;60.53;95796.78;5110306;28;20199;-74
2021/06/29 08:40:20;;;;;;;1999.90;999.90;;;;;;;30.53;61.33;95787.38;5110202;28;20195;-72
2021/06/29 08:42:47;;;;;;;1999.90;999.90;;;;;;;30.65;58.50;95792.09;5110516;28;20222;-72
2021/06/29 08:45:16;;;;;;;1999.90;999.90;;;;;;;30.73;55.72;95785.41;5110228;28;20742;-72
2021/06/29 08:47:44;;;;;;;1999.90;999.90;;;;;;;30.91;56.41;95778.88;5110352;28;20228;-72
2021/06/29 08:50:15;;;;;;;1999.90;999.90;;;;;;;30.56;58.99;95783.09;5109977;28;20310;-73
2021/06/29 08:52:43;;;;;;;1999.90;999.90;;;;;;;30.62;58.27;95776.06;5110183;28;20187;-74
2021/06/29 08:55:12;;;;;;;1999.90;999.90;;;;;;;30.97;55.60;95779.91;5109974;28;20203;-74
2021/06/29 08:57:39;;;;;;;1999.90;999.90;;;;;;;30.94;56.55;95764.59;5109881;28;20742;-74
2021/06/29 09:00:10;;;;;;;1999.90;999.90;;;;;;;31.09;55.04;95760.44;5109051;28;20195;-74
2021/06/29 09:02:39;;;;;;;1999.90;999.90;;;;;;;31.20;57.03;95760.94;5109817;28;20187;-73
2021/06/29 09:05:18;;;;;;;1999.90;999.90;;;;;;;31.41;52.75;95765.81;5110370;28;20294;-74
2021/06/29 09:07:46;;;;;;;1999.90;999.90;;;;;;;31.33;53.18;95753.75;5109749;28;20768;-73
2021/06/29 09:10:13;;;;;;;1999.90;999.90;;;;;;;31.50;54.14;95760.59;5109686;28;20223;-73
2021/06/29 09:12:45;;;;;;;1999.90;999.90;;;;;;;31.51;51.77;95761.34;5109705;28;20268;-73
2021/06/29 09:15:25;;;;;;;1999.90;999.90;;;;;;;31.43;49.26;95760.75;5109615;28;20614;-73
2021/06/29 09:17:52;;;;;;;1999.90;999.90;;;;;;;31.26;51.80;95753.91;5109654;28;20230;-73
2021/06/29 09:20:28;;;;;;;1999.90;999.90;;;;;;;31.24;51.22;95755.47;5109230;28;20203;-74
2021/06/29 09:22:58;;;;;;;1999.90;999.90;;;;;;;31.49;49.72;95748.31;5109680;28;20187;-73
2021/06/29 09:25:27;;;;;;;1999.90;999.90;;;;;;;31.49;52.95;95748.31;5109157;28;20289;-73
2021/06/29 09:27:55;;;;;;;1999.90;999.90;;;;;;;31.69;51.21;95747.47;5109851;28;20199;-73
2021/06/29 09:30:34;;;;;;;1999.90;999.90;;;;;;;31.83;51.45;95741.75;5109604;28;20261;-73
2021/06/29 09:33:05;;;;;;;1999.90;999.90;;;;;;;31.95;48.54;95741.00;5109810;28;20943;-75
2021/06/29 09:35:34;;;;;;;1999.90;999.90;;;;;;;31.79;48.22;95730.31;5109652;28;20225;-74
2021/06/29 09:38:02;;;;;;;1999.90;999.90;;;;;;;31.93;46.92;95729.94;5109979;28;20282;-74
2021/06/29 09:40:32;;;;;;;1999.90;999.90;;;;;;;31.88;49.42;95728.50;5109709;28;20282;-73
2021/06/29 09:43:09;;;;;;;1999.90;999.90;;;;;;;32.16;49.96;95734.31;5109304;28;20706;-74
2021/06/29 09:45:38;;;;;;;1999.90;999.90;;;;;;;31.99;45.13;95728.97;5109469;28;20613;-74
2021/06/29 09:48:09;;;;;;;1999.90;999.90;;;;;;;32.04;48.11;95733.06;5109535;28;20197;-75
2021/06/29 09:50:44;;;;;;;1999.90;999.90;;;;;;;31.78;46.56;95728.81;5109309;28;20251;-73
2021/06/29 09:53:23;;;;;;;1999.90;999.90;;;;;;;31.87;48.74;95727.00;5109259;28;21034;-74
2021/06/29 09:55:52;;;;;;;1999.90;999.90;;;;;;;32.20;47.99;95726.88;5109550;28;20618;-74
2021/06/29 09:58:20;;;;;;;1999.90;999.90;;;;;;;32.32;47.79;95720.78;5109227;28;20249;-74
2021/06/29 10:00:50;;;;;;;1999.90;999.90;;;;;;;32.42;47.31;95722.41;5109535;28;20202;-74
2021/06/29 10:03:26;;;;;;;1999.90;999.90;;;;;;;32.44;44.94;95715.41;5109181;28;20202;-75
2021/06/29 10:05:56;;;;;;;1999.90;999.90;;;;;;;32.62;46.03;95719.50;5109190;28;20277;-74
2021/06/29 10:08:26;;;;;;;1999.90;999.90;;;;;;;32.70;45.20;95720.81;5109054;28;20195;-72
2021/06/29 10:11:18;;;;;;;1999.90;999.90;;;;;;;32.88;45.32;95715.63;5110304;28;20277;-73
2021/06/29 10:13:56;;;;;;;1999.90;999.90;;;;;;;32.99;46.39;95713.34;5098489;28;20199;-71
2021/06/29 10:16:25;;;;;;;1999.90;999.90;;;;;;;33.05;44.33;95706.22;5113343;28;20183;-71
2021/06/29 10:21:43;;;;;;;1999.90;999.90;;;;;;;32.66;44.93;95699.41;5115693;27;20332;-71
2021/06/29 10:24:13;;;;;;;1999.90;999.90;;;;;;;32.89;44.48;95706.34;5112975;28;20248;-70
2021/06/29 10:26:43;;;;;;;1999.90;999.90;;;;;;;33.11;42.62;95701.81;5112796;28;20580;-72
2021/06/29 10:29:13;;;;;;;1999.90;999.90;;;;;;;32.96;43.33;95700.00;5112903;28;20258;-72
2021/06/29 10:31:43;;;;;;;1999.90;999.90;;;;;;;33.09;45.96;95693.41;5112660;28;20239;-74
2021/06/29 10:34:11;;;;;;;1999.90;999.90;;;;;;;33.23;46.16;95695.63;5112793;27;20202;-73
2021/06/29 10:36:43;;;;;;;1999.90;999.90;;;;;;;33.30;43.06;95697.34;5112693;28;20234;-74
2021/06/29 10:39:13;;;;;;;1999.90;999.90;;;;;;;33.16;44.99;95687.06;5112880;28;20191;-74
2021/06/29 10:41:43;;;;;;;1999.90;999.90;;;;;;;33.06;42.92;95683.50;5112541;28;20687;-72
2021/06/29 10:44:12;;;;;;;1999.90;999.90;;;;;;;33.09;43.26;95677.22;5112973;28;20191;-72
2021/06/29 10:46:42;;;;;;;1999.90;999.90;;;;;;;33.26;42.85;95678.63;5112515;28;20201;-71
2021/06/29 10:49:46;;;;;;;1999.90;999.90;;;;;;;33.66;42.63;95667.25;5112518;28;21162;-72
2021/06/29 10:52:39;;;;;;;1999.90;999.90;;;;;;;33.89;43.31;95661.41;5112407;28;20221;-72
2021/06/29 10:55:23;;;;;;;1999.90;999.90;;;;;;;33.82;40.92;95667.06;5111940;28;20668;-72
2021/06/29 10:57:52;;;;;;;1999.90;999.90;;;;;;;33.64;41.34;95651.50;5111521;28;20190;-73
2021/06/29 11:00:32;;;;;;;1999.90;999.90;;;;;;;33.68;41.30;95657.53;5111683;28;20195;-73
2021/06/29 11:03:02;;;;;;;1999.90;999.90;;;;;;;33.71;41.46;95651.28;5111512;28;20274;-73